createdAt,value
2022-08-29T00:00:43.926Z,12.07
2022-08-29T00:01:43.928Z,12.09
2022-08-29T00:02:43.915Z,12.03
2022-08-29T00:03:43.909Z,12.03
2022-08-29T00:04:44.018Z,12.03
2022-08-29T00:05:43.882Z,11.99
2022-08-29T00:06:44.874Z,12.07
2022-08-29T00:07:43.867Z,11.91
2022-08-29T00:08:43.856Z,11.86
2022-08-29T00:09:43.881Z,11.95
2022-08-29T00:10:43.841Z,12.00
2022-08-29T00:11:45.273Z,11.87
2022-08-29T00:12:43.830Z,11.91
2022-08-29T00:13:43.823Z,11.88
2022-08-29T00:14:43.841Z,11.90
2022-08-29T00:15:44.454Z,11.91
2022-08-29T00:16:43.834Z,11.88
2022-08-29T00:17:43.780Z,11.81
2022-08-29T00:18:43.770Z,11.72
2022-08-29T00:19:43.791Z,11.79
2022-08-29T00:20:43.766Z,11.74
2022-08-29T00:21:43.752Z,11.81
2022-08-29T00:22:43.752Z,11.86
2022-08-29T00:23:43.735Z,11.90
2022-08-29T00:24:43.763Z,11.88
2022-08-29T00:25:43.720Z,11.90
2022-08-29T00:26:43.712Z,11.80
2022-08-29T00:27:47.609Z,11.81
2022-08-29T00:28:44.695Z,11.81
2022-08-29T00:29:43.719Z,11.69
2022-08-29T00:30:43.674Z,11.76
2022-08-29T00:31:43.744Z,11.71
2022-08-29T00:32:43.665Z,11.65
2022-08-29T00:33:43.656Z,11.65
2022-08-29T00:34:43.678Z,11.68
2022-08-29T00:35:43.645Z,11.65
2022-08-29T00:36:49.116Z,11.61
2022-08-29T00:37:44.624Z,11.63
2022-08-29T00:38:43.607Z,11.62
2022-08-29T00:39:43.618Z,11.62
2022-08-29T00:40:45.027Z,11.58
2022-08-29T00:41:44.577Z,11.62
2022-08-29T00:42:43.578Z,11.58
2022-08-29T00:43:43.572Z,11.59
2022-08-29T00:44:43.567Z,11.54
2022-08-29T00:45:43.647Z,11.59
2022-08-29T00:46:43.544Z,11.62
2022-08-29T00:47:43.535Z,11.51
2022-08-29T00:48:43.528Z,11.58
2022-08-29T00:49:43.517Z,11.48
2022-08-29T00:50:43.551Z,11.41
2022-08-29T00:51:43.507Z,11.44
2022-08-29T00:52:43.491Z,11.46
2022-08-29T00:53:43.492Z,11.40
2022-08-29T00:54:43.470Z,11.48
2022-08-29T00:55:43.490Z,11.33
2022-08-29T00:56:44.454Z,11.41
2022-08-29T00:57:43.452Z,11.48
2022-08-29T00:58:43.435Z,11.35
2022-08-29T00:59:43.430Z,11.43
2022-08-29T01:00:43.528Z,11.32
2022-08-29T01:01:43.432Z,11.35
2022-08-29T01:02:43.448Z,11.35
2022-08-29T01:03:43.396Z,11.29
2022-08-29T01:04:43.384Z,11.29
2022-08-29T01:05:43.406Z,11.29
2022-08-29T01:06:43.387Z,11.28
2022-08-29T01:07:43.372Z,11.33
2022-08-29T01:08:43.355Z,11.20
2022-08-29T01:09:43.346Z,11.23
2022-08-29T01:10:43.368Z,11.28
2022-08-29T01:11:43.331Z,11.23
2022-08-29T01:12:43.323Z,11.33
2022-08-29T01:13:43.316Z,11.30
2022-08-29T01:14:43.306Z,11.17
2022-08-29T01:15:43.325Z,11.25
2022-08-29T01:16:43.329Z,11.19
2022-08-29T01:17:43.285Z,11.32
2022-08-29T01:18:43.270Z,11.20
2022-08-29T01:19:43.269Z,11.29
2022-08-29T01:20:43.284Z,11.33
2022-08-29T01:21:43.247Z,11.23
2022-08-29T01:22:43.265Z,11.19
2022-08-29T01:23:43.235Z,11.15
2022-08-29T01:24:43.223Z,11.26
2022-08-29T01:25:43.252Z,11.29
2022-08-29T01:26:43.212Z,11.25
2022-08-29T01:27:43.189Z,11.15
2022-08-29T01:28:43.195Z,11.03
2022-08-29T01:29:43.178Z,10.97
2022-08-29T01:30:43.209Z,11.00
2022-08-29T01:31:57.372Z,11.00
2022-08-29T01:32:44.149Z,10.97
2022-08-29T01:33:43.145Z,11.00
2022-08-29T01:34:43.134Z,10.97
2022-08-29T01:35:43.123Z,10.96
2022-08-29T01:36:43.150Z,10.95
2022-08-29T01:37:43.105Z,11.03
2022-08-29T01:38:43.116Z,11.11
2022-08-29T01:39:43.086Z,11.14
2022-08-29T01:40:43.126Z,11.14
2022-08-29T01:41:43.110Z,11.04
2022-08-29T01:42:43.065Z,11.04
2022-08-29T01:43:43.080Z,11.04
2022-08-29T01:44:43.045Z,11.10
2022-08-29T01:45:43.097Z,11.03
2022-08-29T01:46:43.055Z,11.04
2022-08-29T01:47:43.027Z,11.11
2022-08-29T01:48:43.011Z,11.00
2022-08-29T01:49:43.012Z,10.86
2022-08-29T01:50:42.999Z,10.90
2022-08-29T01:51:43.022Z,10.90
2022-08-29T01:52:42.987Z,10.89
2022-08-29T01:53:42.972Z,10.83
2022-08-29T01:54:42.964Z,10.86
2022-08-29T01:55:42.965Z,10.87
2022-08-29T01:56:42.976Z,10.82
2022-08-29T01:57:42.940Z,10.82
2022-08-29T01:58:42.930Z,10.74
2022-08-29T01:59:42.922Z,10.71
2022-08-29T02:00:42.970Z,10.78
2022-08-29T02:01:42.965Z,10.71
2022-08-29T02:02:42.932Z,10.78
2022-08-29T02:03:42.938Z,10.74
2022-08-29T02:04:42.878Z,10.72
2022-08-29T02:05:42.898Z,10.71
2022-08-29T02:06:42.891Z,10.78
2022-08-29T02:07:42.855Z,10.68
2022-08-29T02:08:42.863Z,10.74
2022-08-29T02:09:45.485Z,10.72
2022-08-29T02:10:42.871Z,10.70
2022-08-29T02:11:42.849Z,10.78
2022-08-29T02:12:42.831Z,10.75
2022-08-29T02:13:42.818Z,10.74
2022-08-29T02:14:42.794Z,10.75
2022-08-29T02:15:42.796Z,10.57
2022-08-29T02:16:42.916Z,10.70
2022-08-29T02:17:42.778Z,10.71
2022-08-29T02:18:42.763Z,10.60
2022-08-29T02:19:42.755Z,10.56
2022-08-29T02:20:42.752Z,10.57
2022-08-29T02:21:42.768Z,10.57
2022-08-29T02:22:42.728Z,10.54
2022-08-29T02:23:42.722Z,10.68
2022-08-29T02:24:42.715Z,10.68
2022-08-29T02:25:42.706Z,10.71
2022-08-29T02:26:42.725Z,10.59
2022-08-29T02:27:42.691Z,10.64
2022-08-29T02:28:42.678Z,10.57
2022-08-29T02:29:42.674Z,10.54
2022-08-29T02:30:42.662Z,10.52
2022-08-29T02:31:42.727Z,10.57
2022-08-29T02:32:42.648Z,10.43
2022-08-29T02:33:42.635Z,10.46
2022-08-29T02:34:44.517Z,10.46
2022-08-29T02:35:43.009Z,10.45
2022-08-29T02:36:44.654Z,10.52
2022-08-29T02:37:42.610Z,10.53
2022-08-29T02:38:42.602Z,10.41
2022-08-29T02:39:42.592Z,10.43
2022-08-29T02:40:42.681Z,10.43
2022-08-29T02:41:44.529Z,10.38
2022-08-29T02:42:42.610Z,10.30
2022-08-29T02:43:42.554Z,10.30
2022-08-29T02:44:42.562Z,10.33
2022-08-29T02:45:42.537Z,10.23
2022-08-29T02:46:42.631Z,10.23
2022-08-29T02:47:42.520Z,10.33
2022-08-29T02:48:42.517Z,10.33
2022-08-29T02:49:43.499Z,10.37
2022-08-29T02:50:42.488Z,10.35
2022-08-29T02:51:42.526Z,10.40
2022-08-29T02:52:42.478Z,10.37
2022-08-29T02:53:42.467Z,10.33
2022-08-29T02:54:42.457Z,10.37
2022-08-29T02:55:42.453Z,10.27
2022-08-29T02:56:42.468Z,10.26
2022-08-29T02:57:42.430Z,10.27
2022-08-29T02:58:42.420Z,10.20
2022-08-29T02:59:42.415Z,10.15
2022-08-29T03:00:42.431Z,10.09
2022-08-29T03:01:42.455Z,10.10
2022-08-29T03:02:42.388Z,10.22
2022-08-29T03:03:42.381Z,10.23
2022-08-29T03:04:42.370Z,10.23
2022-08-29T03:05:42.360Z,10.22
2022-08-29T03:06:42.384Z,10.20
2022-08-29T03:07:42.345Z,10.09
2022-08-29T03:08:42.342Z,10.15
2022-08-29T03:09:42.328Z,10.12
2022-08-29T03:10:42.321Z,10.15
2022-08-29T03:11:42.350Z,10.10
2022-08-29T03:12:42.350Z,10.13
2022-08-29T03:13:42.300Z,10.10
2022-08-29T03:14:42.297Z,10.02
2022-08-29T03:15:42.319Z,10.10
2022-08-29T03:16:42.308Z,10.13
2022-08-29T03:17:42.262Z,10.02
2022-08-29T03:18:42.278Z,10.06
2022-08-29T03:19:42.254Z,10.06
2022-08-29T03:20:42.240Z,10.12
2022-08-29T03:21:42.263Z,10.10
2022-08-29T03:22:42.261Z,10.09
2022-08-29T03:23:42.225Z,10.04
2022-08-29T03:24:42.211Z,10.10
2022-08-29T03:25:42.231Z,10.08
2022-08-29T03:26:42.228Z,10.18
2022-08-29T03:27:42.189Z,10.09
2022-08-29T03:28:42.332Z,10.08
2022-08-29T03:29:42.174Z,10.01
2022-08-29T03:30:42.184Z,10.09
2022-08-29T03:31:42.251Z,10.01
2022-08-29T03:32:42.138Z,10.00
2022-08-29T03:33:42.142Z,10.02
2022-08-29T03:34:42.128Z,9.97
2022-08-29T03:35:42.118Z,9.97
2022-08-29T03:36:42.179Z,10.00
2022-08-29T03:37:42.103Z,9.91
2022-08-29T03:38:42.156Z,9.97
2022-08-29T03:39:42.085Z,9.98
2022-08-29T03:40:42.172Z,9.85
2022-08-29T03:41:42.126Z,9.86
2022-08-29T03:42:42.056Z,9.80
2022-08-29T03:43:42.051Z,9.85
2022-08-29T03:44:42.045Z,9.82
2022-08-29T03:45:42.026Z,9.88
2022-08-29T03:46:43.157Z,9.79
2022-08-29T03:47:42.022Z,9.90
2022-08-29T03:48:42.011Z,9.77
2022-08-29T03:49:42.005Z,9.80
2022-08-29T03:50:41.999Z,9.90
2022-08-29T03:51:42.029Z,9.82
2022-08-29T03:52:41.974Z,9.76
2022-08-29T03:53:41.970Z,9.79
2022-08-29T03:54:41.979Z,9.83
2022-08-29T03:55:41.955Z,9.86
2022-08-29T03:56:41.946Z,9.85
2022-08-29T03:57:41.990Z,9.79
2022-08-29T03:58:41.936Z,9.85
2022-08-29T03:59:41.919Z,9.80
2022-08-29T04:00:41.913Z,9.86
2022-08-29T04:01:41.974Z,9.80
2022-08-29T04:02:41.934Z,9.80
2022-08-29T04:03:41.935Z,9.86
2022-08-29T04:04:41.877Z,9.72
2022-08-29T04:05:41.866Z,9.69
2022-08-29T04:06:41.894Z,9.72
2022-08-29T04:07:41.853Z,9.69
2022-08-29T04:08:41.844Z,9.69
2022-08-29T04:09:41.836Z,9.73
2022-08-29T04:10:41.840Z,9.65
2022-08-29T04:11:42.009Z,9.64
2022-08-29T04:12:41.819Z,9.64
2022-08-29T04:13:41.810Z,9.69
2022-08-29T04:14:41.791Z,9.69
2022-08-29T04:15:41.864Z,9.70
2022-08-29T04:16:41.806Z,9.65
2022-08-29T04:17:52.711Z,9.76
2022-08-29T04:18:42.749Z,9.67
2022-08-29T04:19:42.747Z,9.75
2022-08-29T04:20:41.744Z,9.72
2022-08-29T04:21:41.733Z,9.67
2022-08-29T04:22:41.762Z,9.65
2022-08-29T04:23:41.716Z,9.75
2022-08-29T04:24:41.695Z,9.69
2022-08-29T04:25:42.695Z,9.69
2022-08-29T04:26:41.687Z,9.65
2022-08-29T04:27:41.707Z,9.73
2022-08-29T04:28:41.671Z,9.72
2022-08-29T04:29:41.660Z,9.64
2022-08-29T04:30:41.659Z,9.73
2022-08-29T04:31:41.709Z,9.70
2022-08-29T04:32:41.679Z,9.77
2022-08-29T04:33:41.634Z,9.77
2022-08-29T04:34:41.638Z,9.79
2022-08-29T04:35:41.615Z,9.80
2022-08-29T04:36:41.602Z,9.73
2022-08-29T04:37:41.626Z,9.83
2022-08-29T04:38:41.583Z,9.76
2022-08-29T04:39:41.574Z,9.69
2022-08-29T04:40:41.621Z,9.82
2022-08-29T04:41:41.556Z,9.80
2022-08-29T04:42:41.579Z,9.79
2022-08-29T04:43:41.541Z,9.79
2022-08-29T04:44:41.533Z,9.82
2022-08-29T04:45:41.529Z,9.88
2022-08-29T04:46:41.558Z,9.85
2022-08-29T04:47:41.538Z,10.00
2022-08-29T04:48:41.497Z,9.91
2022-08-29T04:49:41.490Z,9.97
2022-08-29T04:50:41.486Z,10.16
2022-08-29T04:51:41.473Z,10.38
2022-08-29T04:52:41.495Z,10.54
2022-08-29T04:53:41.462Z,10.71
2022-08-29T04:54:41.449Z,11.01
2022-08-29T04:55:41.444Z,11.25
2022-08-29T04:56:44.350Z,11.29
2022-08-29T04:57:42.450Z,11.41
2022-08-29T04:58:41.411Z,11.59
2022-08-29T04:59:41.398Z,11.72
2022-08-29T05:00:41.397Z,11.84
2022-08-29T05:01:42.444Z,11.87
2022-08-29T05:02:41.466Z,11.87
2022-08-29T05:03:41.367Z,11.87
2022-08-29T05:04:41.360Z,12.02
2022-08-29T05:05:41.348Z,12.02
2022-08-29T05:06:41.362Z,12.20
2022-08-29T05:07:41.363Z,12.36
2022-08-29T05:08:41.336Z,12.33
2022-08-29T05:09:41.337Z,12.73
2022-08-29T05:10:41.314Z,12.83
2022-08-29T05:11:41.308Z,13.12
2022-08-29T05:12:41.323Z,13.29
2022-08-29T05:13:42.492Z,13.26
2022-08-29T05:14:41.308Z,13.26
2022-08-29T05:15:41.300Z,13.37
2022-08-29T05:16:41.263Z,13.45
2022-08-29T05:17:41.281Z,13.53
2022-08-29T05:18:41.241Z,13.31
2022-08-29T05:19:42.915Z,13.60
2022-08-29T05:20:41.230Z,13.78
2022-08-29T05:21:41.217Z,13.95
2022-08-29T05:22:41.237Z,14.01
2022-08-29T05:23:41.202Z,14.11
2022-08-29T05:24:41.187Z,14.20
2022-08-29T05:25:41.176Z,14.25
2022-08-29T05:26:41.173Z,14.61
2022-08-29T05:27:41.189Z,14.91
2022-08-29T05:28:41.155Z,15.00
2022-08-29T05:29:41.147Z,15.03
2022-08-29T05:30:41.204Z,15.15
2022-08-29T05:31:41.311Z,15.52
2022-08-29T05:32:41.154Z,15.76
2022-08-29T05:33:41.113Z,15.77
2022-08-29T05:34:41.105Z,15.94
2022-08-29T05:35:41.097Z,15.95
2022-08-29T05:36:41.089Z,16.28
2022-08-29T05:37:41.108Z,16.64
2022-08-29T05:38:41.070Z,16.75
2022-08-29T05:39:41.058Z,16.68
2022-08-29T05:40:41.095Z,16.49
2022-08-29T05:41:41.045Z,16.53
2022-08-29T05:42:41.064Z,16.35
2022-08-29T05:43:41.030Z,16.50
2022-08-29T05:44:41.018Z,16.35
2022-08-29T05:45:41.004Z,16.43
2022-08-29T05:46:41.082Z,16.64
2022-08-29T05:47:41.039Z,16.71
2022-08-29T05:48:40.986Z,16.91
2022-08-29T05:49:40.976Z,16.82
2022-08-29T05:50:40.970Z,16.57
2022-08-29T05:51:40.954Z,16.57
2022-08-29T05:52:40.991Z,16.83
2022-08-29T05:53:40.935Z,16.79
2022-08-29T05:54:40.928Z,16.54
2022-08-29T05:55:40.920Z,16.57
2022-08-29T05:56:40.916Z,16.61
2022-08-29T05:57:40.913Z,16.74
2022-08-29T05:58:40.928Z,17.30
2022-08-29T05:59:40.891Z,17.42
2022-08-29T06:00:40.992Z,17.33
2022-08-29T06:01:40.877Z,17.71
2022-08-29T06:02:40.980Z,17.39
2022-08-29T06:03:45.377Z,17.14
2022-08-29T06:04:42.846Z,17.29
2022-08-29T06:05:40.844Z,17.20
2022-08-29T06:06:40.838Z,17.12
2022-08-29T06:07:40.832Z,17.48
2022-08-29T06:08:40.849Z,17.71
2022-08-29T06:09:40.814Z,17.75
2022-08-29T06:10:40.803Z,17.94
2022-08-29T06:11:40.800Z,17.95
2022-08-29T06:12:40.788Z,18.41
2022-08-29T06:13:40.812Z,19.11
2022-08-29T06:14:40.771Z,19.51
2022-08-29T06:15:40.851Z,19.73
2022-08-29T06:16:40.755Z,19.99
2022-08-29T06:17:40.741Z,19.70
2022-08-29T06:18:40.764Z,19.64
2022-08-29T06:19:40.724Z,19.84
2022-08-29T06:20:40.715Z,20.09
2022-08-29T06:21:40.707Z,20.17
2022-08-29T06:22:40.792Z,20.34
2022-08-29T06:23:40.723Z,20.22
2022-08-29T06:24:42.569Z,20.24
2022-08-29T06:25:40.725Z,20.15
2022-08-29T06:26:40.661Z,19.60
2022-08-29T06:27:40.658Z,19.37
2022-08-29T06:28:40.675Z,19.37
2022-08-29T06:29:43.040Z,19.71
2022-08-29T06:30:40.648Z,19.71
2022-08-29T06:31:40.625Z,19.70
2022-08-29T06:32:40.617Z,19.45
2022-08-29T06:33:40.639Z,19.34
2022-08-29T06:34:40.603Z,19.70
2022-08-29T06:35:40.588Z,19.94
2022-08-29T06:36:40.576Z,19.67
2022-08-29T06:37:40.574Z,19.64
2022-08-29T06:38:40.583Z,20.04
2022-08-29T06:39:41.559Z,20.09
2022-08-29T06:40:40.622Z,20.21
2022-08-29T06:41:40.544Z,20.78
2022-08-29T06:42:40.536Z,20.99
2022-08-29T06:43:40.559Z,20.74
2022-08-29T06:44:44.393Z,20.67
2022-08-29T06:45:41.515Z,20.95
2022-08-29T06:46:40.533Z,20.36
2022-08-29T06:47:40.495Z,19.88
2022-08-29T06:48:40.515Z,19.73
2022-08-29T06:49:40.474Z,19.81
2022-08-29T06:50:45.330Z,19.91
2022-08-29T06:51:42.462Z,19.66
2022-08-29T06:52:40.462Z,19.70
2022-08-29T06:53:40.753Z,19.60
2022-08-29T06:54:40.434Z,19.76
2022-08-29T06:55:40.434Z,19.74
2022-08-29T06:56:40.424Z,19.27
2022-08-29T06:57:40.409Z,18.85
2022-08-29T06:58:40.427Z,18.35
2022-08-29T06:59:40.395Z,18.16
2022-08-29T07:00:40.932Z,18.25
2022-08-29T07:01:40.434Z,18.53
2022-08-29T07:02:40.476Z,18.83
2022-08-29T07:03:40.392Z,18.95
2022-08-29T07:04:40.387Z,19.54
2022-08-29T07:05:40.350Z,19.89
2022-08-29T07:06:40.358Z,19.69
2022-08-29T07:07:40.329Z,19.74
2022-08-29T07:08:54.973Z,19.73
2022-08-29T07:09:42.317Z,19.26
2022-08-29T07:10:40.310Z,19.31
2022-08-29T07:11:41.259Z,19.81
2022-08-29T07:12:41.303Z,20.39
2022-08-29T07:13:40.318Z,21.06
2022-08-29T07:14:40.274Z,21.45
2022-08-29T07:15:40.365Z,21.65
2022-08-29T07:16:40.265Z,21.52
2022-08-29T07:17:40.250Z,21.59
2022-08-29T07:18:40.291Z,21.42
2022-08-29T07:19:40.230Z,21.76
2022-08-29T07:20:40.241Z,21.98
2022-08-29T07:21:40.228Z,22.13
2022-08-29T07:22:40.215Z,22.50
2022-08-29T07:23:40.229Z,22.87
2022-08-29T07:24:40.198Z,22.85
2022-08-29T07:25:40.189Z,23.44
2022-08-29T07:26:40.181Z,23.76
2022-08-29T07:27:40.178Z,23.83
2022-08-29T07:28:42.248Z,24.45
2022-08-29T07:29:41.150Z,24.52
2022-08-29T07:30:40.213Z,24.02
2022-08-29T07:31:40.146Z,24.25
2022-08-29T07:32:40.129Z,24.58
2022-08-29T07:33:40.152Z,24.62
2022-08-29T07:34:40.120Z,24.92
2022-08-29T07:35:40.099Z,24.83
2022-08-29T07:36:40.115Z,24.74
2022-08-29T07:37:40.091Z,24.66
2022-08-29T07:38:40.082Z,24.55
2022-08-29T07:39:40.108Z,24.40
2022-08-29T07:40:40.109Z,24.03
2022-08-29T07:41:40.074Z,23.80
2022-08-29T07:42:40.046Z,23.33
2022-08-29T07:43:40.041Z,23.07
2022-08-29T07:44:40.059Z,22.80
2022-08-29T07:45:40.067Z,22.80
2022-08-29T07:46:40.016Z,22.80
2022-08-29T07:47:40.011Z,21.90
2022-08-29T07:48:40.025Z,21.55
2022-08-29T07:49:41.963Z,21.57
2022-08-29T07:50:40.988Z,21.55
2022-08-29T07:51:42.341Z,22.29
2022-08-29T07:52:39.977Z,22.77
2022-08-29T07:53:39.989Z,23.00
2022-08-29T07:54:39.948Z,23.17
2022-08-29T07:55:39.949Z,23.46
2022-08-29T07:56:39.937Z,23.71
2022-08-29T07:57:40.172Z,23.18
2022-08-29T07:58:39.950Z,23.22
2022-08-29T07:59:39.916Z,23.90
2022-08-29T08:00:39.916Z,24.17
2022-08-29T08:01:39.947Z,23.86
2022-08-29T08:02:39.949Z,23.53
2022-08-29T08:03:39.912Z,23.31
2022-08-29T08:04:39.880Z,23.31
2022-08-29T08:05:39.881Z,23.51
2022-08-29T08:06:39.869Z,23.40
2022-08-29T08:07:40.364Z,23.43
2022-08-29T08:08:39.891Z,22.66
2022-08-29T08:09:39.839Z,22.28
2022-08-29T08:10:39.829Z,22.25
2022-08-29T08:11:39.826Z,22.17
2022-08-29T08:12:39.840Z,22.17
2022-08-29T08:13:39.838Z,22.43
2022-08-29T08:14:39.803Z,22.48
2022-08-29T08:15:39.799Z,22.63
2022-08-29T08:16:44.369Z,22.63
2022-08-29T08:17:43.902Z,22.69
2022-08-29T08:18:40.794Z,22.83
2022-08-29T08:19:39.763Z,22.60
2022-08-29T08:20:39.745Z,22.73
2022-08-29T08:21:49.338Z,22.96
2022-08-29T08:22:40.732Z,23.15
2022-08-29T08:23:39.734Z,22.98
2022-08-29T08:24:39.753Z,23.09
2022-08-29T08:25:39.713Z,22.66
2022-08-29T08:26:39.716Z,22.47
2022-08-29T08:27:43.537Z,21.74
2022-08-29T08:28:40.693Z,21.96
2022-08-29T08:29:39.704Z,21.89
2022-08-29T08:30:39.718Z,21.90
2022-08-29T08:31:39.813Z,21.99
2022-08-29T08:32:43.087Z,22.10
2022-08-29T08:33:40.641Z,21.85
2022-08-29T08:34:39.671Z,21.79
2022-08-29T08:35:41.996Z,22.20
2022-08-29T08:36:41.461Z,22.65
2022-08-29T08:37:40.625Z,22.90
2022-08-29T08:38:39.614Z,23.20
2022-08-29T08:39:39.641Z,23.52
2022-08-29T08:40:39.672Z,23.84
2022-08-29T08:41:39.591Z,24.21
2022-08-29T08:42:39.582Z,24.37
2022-08-29T08:43:39.621Z,24.05
2022-08-29T08:44:39.590Z,23.83
2022-08-29T08:45:39.606Z,24.33
2022-08-29T08:46:39.551Z,24.32
2022-08-29T08:47:39.545Z,24.29
2022-08-29T08:48:39.563Z,24.54
2022-08-29T08:49:39.553Z,24.76
2022-08-29T08:50:39.520Z,24.95
2022-08-29T08:51:39.514Z,25.00
2022-08-29T08:52:39.508Z,24.44
2022-08-29T08:53:39.496Z,24.70
2022-08-29T08:54:39.514Z,25.25
2022-08-29T08:55:39.479Z,25.00
2022-08-29T08:56:39.465Z,24.74
2022-08-29T08:57:39.461Z,24.43
2022-08-29T08:58:39.450Z,24.08
2022-08-29T08:59:39.500Z,24.48
2022-08-29T09:00:39.433Z,24.51
2022-08-29T09:01:39.491Z,24.07
2022-08-29T09:02:39.455Z,24.25
2022-08-29T09:03:39.450Z,23.96
2022-08-29T09:04:39.415Z,23.80
2022-08-29T09:05:39.581Z,23.56
2022-08-29T09:06:39.395Z,23.15
2022-08-29T09:07:39.399Z,23.22
2022-08-29T09:08:39.412Z,23.89
2022-08-29T09:09:39.365Z,24.62
2022-08-29T09:10:39.358Z,24.98
2022-08-29T09:11:39.364Z,25.50
2022-08-29T09:12:39.343Z,24.76
2022-08-29T09:13:39.386Z,24.52
2022-08-29T09:14:39.346Z,24.89
2022-08-29T09:15:39.318Z,24.96
2022-08-29T09:16:39.341Z,25.11
2022-08-29T09:17:39.302Z,25.45
2022-08-29T09:18:39.297Z,25.95
2022-08-29T09:19:39.316Z,25.65
2022-08-29T09:20:39.287Z,25.45
2022-08-29T09:21:41.731Z,25.96
2022-08-29T09:22:40.263Z,25.41
2022-08-29T09:23:39.300Z,25.65
2022-08-29T09:24:39.253Z,26.10
2022-08-29T09:25:39.249Z,26.30
2022-08-29T09:26:39.233Z,25.70
2022-08-29T09:27:39.234Z,25.73
2022-08-29T09:28:39.217Z,25.59
2022-08-29T09:29:39.231Z,25.97
2022-08-29T09:30:40.210Z,26.18
2022-08-29T09:31:39.232Z,25.97
2022-08-29T09:32:39.187Z,26.44
2022-08-29T09:33:39.208Z,26.31
2022-08-29T09:35:07.356Z,26.03
2022-08-29T09:35:41.166Z,26.67
2022-08-29T09:36:39.159Z,26.93
2022-08-29T09:37:39.150Z,27.49
2022-08-29T09:38:39.154Z,27.97
2022-08-29T09:39:39.168Z,27.00
2022-08-29T09:40:39.166Z,25.33
2022-08-29T09:41:39.116Z,24.96
2022-08-29T09:42:39.117Z,25.15
2022-08-29T09:43:39.104Z,25.41
2022-08-29T09:44:39.140Z,25.15
2022-08-29T09:45:39.142Z,25.62
2022-08-29T09:46:39.088Z,25.84
2022-08-29T09:47:39.077Z,26.22
2022-08-29T09:48:39.061Z,26.31
2022-08-29T09:49:39.084Z,26.26
2022-08-29T09:50:39.067Z,26.57
2022-08-29T09:51:39.047Z,26.65
2022-08-29T09:52:39.044Z,25.99
2022-08-29T09:53:39.030Z,26.12
2022-08-29T09:54:39.043Z,26.48
2022-08-29T09:55:39.006Z,26.82
2022-08-29T09:56:39.002Z,26.77
2022-08-29T09:57:38.997Z,26.74
2022-08-29T09:58:40.124Z,27.17
2022-08-29T09:59:40.283Z,27.34
2022-08-29T10:00:38.969Z,27.64
2022-08-29T10:01:39.011Z,27.34
2022-08-29T10:02:39.038Z,27.24
2022-08-29T10:03:39.659Z,27.33
2022-08-29T10:04:38.973Z,27.37
2022-08-29T10:05:38.928Z,26.74
2022-08-29T10:06:43.493Z,26.06
2022-08-29T10:07:40.930Z,25.18
2022-08-29T10:08:38.924Z,25.00
2022-08-29T10:09:38.924Z,25.26
2022-08-29T10:10:38.900Z,25.53
2022-08-29T10:11:38.882Z,26.43
2022-08-29T10:12:38.874Z,26.75
2022-08-29T10:13:38.863Z,26.86
2022-08-29T10:14:38.910Z,26.67
2022-08-29T10:15:52.062Z,26.56
2022-08-29T10:16:40.967Z,26.67
2022-08-29T10:17:38.846Z,26.97
2022-08-29T10:18:38.830Z,26.68
2022-08-29T10:19:38.854Z,26.57
2022-08-29T10:20:38.824Z,26.74
2022-08-29T10:21:38.817Z,26.53
2022-08-29T10:22:38.809Z,26.71
2022-08-29T10:23:38.796Z,26.92
2022-08-29T10:24:38.826Z,26.06
2022-08-29T10:25:38.775Z,25.87
2022-08-29T10:26:38.777Z,26.55
2022-08-29T10:27:38.767Z,26.96
2022-08-29T10:28:38.748Z,26.71
2022-08-29T10:29:38.769Z,27.02
2022-08-29T10:30:38.737Z,27.33
2022-08-29T10:31:38.769Z,27.46
2022-08-29T10:32:38.730Z,27.82
2022-08-29T10:33:38.718Z,27.30
2022-08-29T10:34:38.748Z,27.79
2022-08-29T10:35:38.712Z,27.32
2022-08-29T10:36:38.696Z,27.74
2022-08-29T10:37:38.691Z,28.63
2022-08-29T10:38:38.676Z,29.19
2022-08-29T10:39:38.676Z,29.35
2022-08-29T10:40:38.724Z,29.26
2022-08-29T10:41:38.667Z,29.50
2022-08-29T10:42:38.653Z,29.14
2022-08-29T10:43:38.638Z,29.26
2022-08-29T10:44:38.639Z,29.58
2022-08-29T10:45:38.666Z,28.23
2022-08-29T10:46:38.620Z,27.42
2022-08-29T10:47:38.619Z,27.22
2022-08-29T10:48:38.605Z,27.46
2022-08-29T10:49:43.036Z,27.08
2022-08-29T10:50:47.008Z,27.39
2022-08-29T10:51:40.583Z,28.01
2022-08-29T10:52:38.580Z,28.51
2022-08-29T10:53:38.578Z,28.61
2022-08-29T10:54:38.565Z,29.72
2022-08-29T10:55:38.591Z,28.22
2022-08-29T10:56:38.559Z,27.72
2022-08-29T10:57:38.541Z,26.99
2022-08-29T10:58:38.544Z,26.72
2022-08-29T10:59:38.526Z,26.72
2022-08-29T11:00:38.575Z,26.95
2022-08-29T11:01:39.600Z,27.93
2022-08-29T11:02:38.502Z,28.56
2022-08-29T11:03:38.526Z,28.57
2022-08-29T11:04:38.493Z,27.70
2022-08-29T11:05:38.515Z,28.20
2022-08-29T11:06:38.477Z,28.91
2022-08-29T11:07:38.472Z,29.25
2022-08-29T11:08:38.466Z,28.17
2022-08-29T11:09:38.460Z,26.99
2022-08-29T11:10:38.479Z,26.07
2022-08-29T11:11:38.439Z,25.95
2022-08-29T11:12:38.437Z,25.84
2022-08-29T11:13:38.427Z,26.49
2022-08-29T11:14:38.411Z,26.77
2022-08-29T11:15:38.437Z,26.67
2022-08-29T11:16:38.477Z,27.27
2022-08-29T11:17:38.401Z,27.79
2022-08-29T11:18:38.391Z,28.49
2022-08-29T11:19:38.383Z,29.47
2022-08-29T11:20:38.404Z,29.99
2022-08-29T11:21:38.370Z,30.21
2022-08-29T11:22:38.361Z,30.16
2022-08-29T11:23:38.358Z,28.19
2022-08-29T11:24:38.342Z,27.54
2022-08-29T11:25:38.363Z,28.32
2022-08-29T11:26:38.327Z,28.71
2022-08-29T11:27:38.353Z,29.09
2022-08-29T11:28:38.333Z,29.20
2022-08-29T11:29:38.306Z,30.12
2022-08-29T11:30:40.418Z,29.99
2022-08-29T11:31:39.340Z,28.93
2022-08-29T11:32:38.298Z,29.28
2022-08-29T11:33:38.278Z,29.35
2022-08-29T11:34:38.274Z,29.46
2022-08-29T11:35:38.302Z,29.46
2022-08-29T11:36:38.277Z,28.49
2022-08-29T11:37:38.251Z,28.32
2022-08-29T11:38:38.265Z,27.90
2022-08-29T11:39:38.244Z,27.93
2022-08-29T11:41:40.309Z,29.01
2022-08-29T11:42:53.761Z,28.51
2022-08-29T11:43:40.220Z,28.54
2022-08-29T11:44:38.204Z,28.63
2022-08-29T11:45:38.224Z,29.04
2022-08-29T11:46:38.219Z,28.46
2022-08-29T11:47:40.898Z,28.27
2022-08-29T11:48:38.191Z,28.19
2022-08-29T11:49:38.205Z,28.69
2022-08-29T11:50:38.191Z,28.81
2022-08-29T11:51:38.160Z,28.76
2022-08-29T11:52:38.152Z,27.74
2022-08-29T11:53:38.157Z,27.36
2022-08-29T11:54:38.136Z,27.44
2022-08-29T11:55:38.131Z,26.92
2022-08-29T11:56:38.157Z,27.36
2022-08-29T11:57:38.118Z,27.97
2022-08-29T11:58:38.110Z,28.11
2022-08-29T11:59:38.117Z,27.58
2022-08-29T12:00:38.098Z,28.01
2022-08-29T12:01:38.114Z,27.55
2022-08-29T12:02:38.097Z,27.92
2022-08-29T12:03:38.125Z,28.85
2022-08-29T12:04:38.101Z,28.26
2022-08-29T12:05:38.053Z,27.71
2022-08-29T12:06:38.088Z,26.72
2022-08-29T12:07:38.035Z,26.06
2022-08-29T12:08:38.336Z,27.22
2022-08-29T12:09:38.028Z,27.82
2022-08-29T12:10:38.016Z,27.90
2022-08-29T12:11:38.047Z,28.14
2022-08-29T12:12:38.006Z,28.32
2022-08-29T12:13:37.995Z,28.61
2022-08-29T12:14:38.425Z,28.72
2022-08-29T12:15:38.983Z,28.73
2022-08-29T12:16:38.032Z,28.57
2022-08-29T12:18:00.410Z,28.83
2022-08-29T12:18:39.960Z,28.24
2022-08-29T12:19:37.959Z,27.82
2022-08-29T12:20:37.950Z,28.26
2022-08-29T12:21:37.992Z,28.30
2022-08-29T12:22:37.984Z,27.93
2022-08-29T12:23:37.933Z,28.02
2022-08-29T12:24:37.927Z,27.75
2022-08-29T12:25:37.900Z,28.63
2022-08-29T12:26:38.947Z,29.70
2022-08-29T12:27:37.903Z,29.97
2022-08-29T12:28:37.901Z,30.00
2022-08-29T12:29:41.006Z,30.00
2022-08-29T12:30:38.873Z,30.39
2022-08-29T12:31:37.929Z,30.74
2022-08-29T12:32:40.134Z,29.85
2022-08-29T12:33:38.847Z,29.97
2022-08-29T12:34:37.860Z,30.22
2022-08-29T12:35:37.851Z,30.18
2022-08-29T12:36:37.900Z,30.56
2022-08-29T12:37:37.831Z,29.72
2022-08-29T12:38:42.055Z,29.19
2022-08-29T12:39:38.818Z,29.75
2022-08-29T12:40:37.940Z,28.98
2022-08-29T12:41:38.322Z,28.54
2022-08-29T12:42:37.800Z,29.10
2022-08-29T12:43:37.791Z,29.81
2022-08-29T12:44:37.783Z,29.97
2022-08-29T12:45:37.782Z,29.76
2022-08-29T12:46:37.863Z,29.73
2022-08-29T12:47:37.759Z,30.27
2022-08-29T12:48:37.748Z,30.69
2022-08-29T12:49:37.741Z,30.48
2022-08-29T12:50:37.740Z,29.94
2022-08-29T12:51:37.769Z,29.05
2022-08-29T12:52:37.724Z,28.75
2022-08-29T12:53:37.717Z,29.09
2022-08-29T12:54:37.714Z,29.50
2022-08-29T12:55:37.707Z,29.85
2022-08-29T12:56:37.776Z,29.05